Time;durP1;ratioP1;P1;durP2;ratioP2;P2;SDS_P1;SDS_P2;PMS_P1;PMS_P2;Temp;Humidity;BMP_temperature;BMP_pressure;BME280_temperature;BME280_humidity;BME280_pressure;Samples;Min_cycle;Max_cycle;Signal;HPM_P1;HPM_P2
2021/12/12 00:00:50;;;;;;;38.83;26.83;;;2.90;91.60;;;1.38;93.05;98667.84;5045769;28;20473;-67
2021/12/12 00:03:32;;;;;;;37.20;27.30;;;2.90;91.40;;;1.53;93.48;98684.22;5066170;28;20541;-69
2021/12/12 00:06:05;;;;;;;39.07;25.97;;;3.00;91.50;;;1.39;93.16;98688.16;5041491;28;20616;-68
2021/12/12 00:08:32;;;;;;;45.63;28.13;;;3.00;91.20;;;1.53;93.26;98686.88;5040988;28;20511;-67
2021/12/12 00:11:07;;;;;;;39.70;25.87;;;3.00;91.30;;;1.29;93.80;98693.47;5044223;28;20472;-67
2021/12/12 00:13:39;;;;;;;35.73;25.53;;;2.90;91.30;;;1.36;93.78;98697.25;5057927;28;21140;-68
2021/12/12 00:16:07;;;;;;;39.63;26.27;;;2.90;91.70;;;1.29;94.31;98695.28;5040924;28;20521;-67
2021/12/12 00:18:34;;;;;;;41.63;27.33;;;2.80;92.10;;;1.18;94.68;98706.91;5048624;28;21226;-68
2021/12/12 00:21:05;;;;;;;39.07;26.50;;;2.80;92.40;;;1.19;94.95;98713.91;5048617;28;20871;-68
2021/12/12 00:23:32;;;;;;;41.40;27.00;;;2.70;92.70;;;1.25;94.59;98710.69;5044620;28;20458;-69
2021/12/12 00:26:00;;;;;;;39.47;25.80;;;2.70;92.50;;;1.33;94.85;98715.31;5061836;28;20472;-66
2021/12/12 00:28:28;;;;;;;34.50;23.87;;;2.80;93.00;;;1.47;94.35;98717.56;5052162;28;20898;-67
2021/12/12 00:31:00;;;;;;;32.70;24.07;;;2.90;92.70;;;1.47;94.02;98724.75;5047112;28;20458;-67
2021/12/12 00:33:28;;;;;;;39.77;26.03;;;2.90;92.40;;;1.45;93.87;98726.69;5047409;28;20462;-68
2021/12/12 00:35:55;;;;;;;35.30;24.40;;;2.90;92.40;;;1.46;93.99;98737.19;5038127;28;20450;-67
2021/12/12 00:38:31;;;;;;;39.73;25.37;;;2.90;92.00;;;1.45;94.17;98732.03;5063901;28;20545;-67
2021/12/12 00:41:04;;;;;;;37.70;25.90;;;2.90;92.40;;;1.28;94.53;98726.38;5051535;28;20504;-67
2021/12/12 00:43:38;;;;;;;38.67;27.20;;;2.90;92.10;;;1.25;95.42;98726.66;5047990;28;20809;-67
2021/12/12 00:46:09;;;;;;;37.90;25.97;;;2.80;93.30;;;1.39;94.50;98733.44;5035661;28;20453;-67
2021/12/12 00:48:38;;;;;;;41.67;26.30;;;2.80;92.70;;;1.43;94.32;98732.16;5059015;28;20455;-67
2021/12/12 00:51:14;;;;;;;37.30;25.83;;;2.90;92.30;;;1.39;94.58;98742.25;5047730;28;20501;-67
2021/12/12 00:53:44;;;;;;;38.27;24.87;;;2.90;92.60;;;1.26;95.18;98737.19;5062324;28;20457;-68
2021/12/12 00:56:12;;;;;;;37.17;24.70;;;2.80;92.80;;;1.46;94.60;98744.38;5048088;28;20820;-68
2021/12/12 00:58:40;;;;;;;35.73;25.40;;;2.90;93.00;;;1.35;94.19;98732.84;5050897;28;20537;-67
2021/12/12 01:01:13;;;;;;;42.37;25.10;;;2.90;92.30;;;1.39;94.20;98733.44;5039766;28;20462;-68
2021/12/12 01:03:45;;;;;;;34.07;23.37;;;2.90;92.40;;;1.34;94.21;98746.28;5047682;28;20835;-68
2021/12/12 01:06:13;;;;;;;41.30;25.20;;;2.90;92.10;;;1.45;94.18;98745.34;5056484;28;20458;-68
2021/12/12 01:08:47;;;;;;;34.57;24.40;;;2.80;92.80;;;1.36;94.20;98750.50;5046734;28;20463;-67
2021/12/12 01:11:20;;;;;;;40.50;25.07;;;2.90;92.40;;;1.38;94.53;98751.22;5045270;28;20558;-67
2021/12/12 01:13:48;;;;;;;35.80;25.10;;;2.90;92.40;;;1.20;95.36;98748.38;5047851;28;20544;-67
2021/12/12 01:16:21;;;;;;;38.67;25.70;;;2.80;92.70;;;1.33;94.66;98750.78;5039921;28;20919;-68
2021/12/12 01:18:56;;;;;;;39.20;23.97;;;2.80;93.10;;;1.49;94.46;98760.88;5050028;28;20454;-67
2021/12/12 01:21:29;;;;;;;37.63;24.60;;;2.80;93.10;;;1.53;93.84;98761.47;5044261;28;20892;-66
2021/12/12 01:24:04;;;;;;;34.53;24.27;;;2.90;92.50;;;1.39;94.28;98766.22;5060811;28;20796;-67
2021/12/12 01:26:31;;;;;;;36.47;22.80;;;2.90;92.40;;;1.53;94.54;98766.78;5046246;28;20519;-67
2021/12/12 01:29:01;;;;;;;36.93;23.97;;;2.90;92.70;;;1.44;94.52;98751.63;5042913;28;20855;-66
2021/12/12 01:31:35;;;;;;;39.07;23.67;;;3.00;92.40;;;1.49;94.12;98765.38;5042626;28;20483;-68
2021/12/12 01:34:11;;;;;;;38.10;22.83;;;3.00;92.20;;;1.53;94.50;98754.31;5046732;28;20815;-67
2021/12/12 01:36:49;;;;;;;33.93;23.10;;;2.90;92.60;;;1.63;93.53;98761.47;5045724;28;20531;-68
2021/12/12 01:39:22;;;;;;;36.70;21.97;;;3.00;92.30;;;1.50;94.22;98769.72;5043256;28;20481;-68
2021/12/12 01:41:57;;;;;;;36.50;23.40;;;3.00;92.00;;;1.51;93.69;98752.78;5046670;28;21067;-68
2021/12/12 01:44:29;;;;;;;35.07;23.33;;;3.00;91.80;;;1.53;93.53;98764.97;5044330;28;20554;-66
2021/12/12 01:47:05;;;;;;;32.07;22.27;;;3.00;91.40;;;1.56;93.26;98766.50;5046926;28;20509;-68
2021/12/12 01:49:35;;;;;;;29.00;22.13;;;3.10;91.50;;;1.56;93.73;98782.47;5056579;28;20509;-68
2021/12/12 01:52:07;;;;;;;37.77;24.00;;;3.00;91.70;;;1.60;93.33;98778.59;5045120;28;20568;-66
2021/12/12 01:54:44;;;;;;;33.90;23.23;;;3.00;91.90;;;1.54;93.71;98784.44;5040078;28;20541;-66
2021/12/12 01:57:14;;;;;;;33.70;21.90;;;3.00;91.60;;;1.61;93.78;98790.91;5044165;28;20570;-68
2021/12/12 01:59:43;;;;;;;35.70;22.10;;;3.00;91.90;;;1.61;93.11;98790.91;5043906;28;20890;-68
2021/12/12 02:02:16;;;;;;;29.87;22.40;;;3.10;91.10;;;1.62;93.26;98791.75;5046569;28;20466;-68
2021/12/12 02:04:47;;;;;;;30.07;21.80;;;3.10;91.30;;;1.71;92.72;98788.25;5049234;28;20891;-68
2021/12/12 02:07:19;;;;;;;32.73;22.10;;;3.10;91.30;;;1.69;93.10;98793.72;5039437;28;20481;-68
2021/12/12 02:09:49;;;;;;;31.23;22.53;;;3.10;91.30;;;1.74;92.29;98795.09;5044527;28;20457;-67
2021/12/12 02:12:23;;;;;;;35.30;22.17;;;3.10;90.90;;;1.58;93.41;98795.66;5045708;28;20549;-68
2021/12/12 02:14:50;;;;;;;32.90;20.50;;;3.10;91.30;;;1.48;93.23;98795.66;5047905;28;20541;-67
2021/12/12 02:17:27;;;;;;;28.83;21.00;;;3.00;91.00;;;1.50;92.94;98786.53;5041443;28;21083;-67
2021/12/12 02:20:05;;;;;;;32.53;20.17;;;3.10;91.30;;;1.69;92.38;98798.22;5047956;28;20875;-66
2021/12/12 02:22:52;;;;;;;31.87;20.97;;;3.10;91.00;;;1.72;92.35;98802.41;5060772;28;20446;-67
2021/12/12 02:36:21;;;;;;;31.70;21.00;;;3.10;91.70;;;1.57;93.17;98805.47;5046121;28;20462;-68
2021/12/12 02:38:53;;;;;;;28.57;21.50;;;3.10;91.20;;;1.66;92.91;98796.66;5042638;28;20450;-68
2021/12/12 02:41:23;;;;;;;29.10;21.50;;;3.10;91.50;;;1.63;93.47;98791.63;5046613;28;20490;-68
2021/12/12 02:43:54;;;;;;;30.50;20.90;;;3.10;91.60;;;1.57;93.28;98797.47;5047806;28;20453;-68
2021/12/12 02:46:27;;;;;;;33.50;22.10;;;3.10;91.10;;;1.61;93.20;98790.91;5040979;28;21098;-68
2021/12/12 02:49:04;;;;;;;28.77;19.80;;;3.10;91.40;;;1.59;93.39;98798.19;5044937;28;20549;-67
2021/12/12 02:51:31;;;;;;;27.70;20.23;;;3.10;91.50;;;1.67;92.86;98792.19;5043547;28;20481;-67
2021/12/12 02:54:00;;;;;;;29.97;20.17;;;3.10;91.30;;;1.70;92.52;98782.06;5045736;28;20462;-67
2021/12/12 02:56:32;;;;;;;26.10;19.17;;;3.10;90.80;;;1.70;92.98;98779.41;5044052;28;20502;-67
2021/12/12 02:59:01;;;;;;;29.10;21.07;;;3.10;91.30;;;1.59;93.14;98786.69;5056377;28;20453;-67
2021/12/12 03:01:34;;;;;;;36.53;21.10;;;3.10;91.20;;;1.69;92.96;98776.91;5039797;28;20556;-67
2021/12/12 03:04:01;;;;;;;34.97;23.07;;;3.10;91.50;;;1.54;93.47;98785.31;5041921;28;20490;-68
2021/12/12 03:06:32;;;;;;;28.57;19.73;;;3.00;91.40;;;1.60;93.46;98783.06;5041732;28;20640;-67
2021/12/12 03:09:09;;;;;;;28.53;19.77;;;3.00;91.70;;;1.73;92.98;98788.09;5034186;28;20551;-68
2021/12/12 03:11:36;;;;;;;28.60;19.17;;;3.10;91.40;;;1.42;93.58;98759.78;5045784;28;20552;-68
2021/12/12 03:14:04;;;;;;;28.50;20.77;;;3.10;91.50;;;1.44;94.35;98767.59;5040739;28;20561;-68
2021/12/12 03:16:33;;;;;;;31.80;21.27;;;3.00;91.70;;;1.46;94.28;98787.81;5060517;28;20467;-68
2021/12/12 03:19:02;;;;;;;30.50;21.50;;;2.90;92.20;;;1.58;94.11;98785.03;5046295;28;20882;-68
2021/12/12 03:21:34;;;;;;;29.03;21.10;;;3.00;92.30;;;1.65;93.27;98787.00;5043096;28;21005;-68
2021/12/12 03:24:07;;;;;;;31.67;22.07;;;3.10;91.70;;;1.73;92.80;98794.28;5043226;28;20489;-70
2021/12/12 03:26:38;;;;;;;34.53;20.97;;;3.20;91.50;;;1.59;93.73;98792.03;5036323;28;20823;-68
2021/12/12 03:29:06;;;;;;;31.00;22.00;;;3.10;91.80;;;1.65;93.62;98797.66;5043886;28;20511;-68
2021/12/12 03:31:39;;;;;;;29.83;20.53;;;3.10;91.90;;;1.63;93.51;98794.28;5040219;28;20453;-66
2021/12/12 03:34:07;;;;;;;34.07;21.40;;;3.10;91.80;;;1.63;93.35;98799.59;5041441;28;20558;-68
2021/12/12 03:36:35;;;;;;;34.30;23.00;;;3.10;91.80;;;1.63;93.70;98804.09;5043171;28;20484;-68
2021/12/12 03:39:12;;;;;;;31.57;22.47;;;3.10;91.80;;;1.66;93.73;98811.78;5045713;28;20453;-67
2021/12/12 03:41:41;;;;;;;31.30;20.50;;;3.10;92.00;;;1.75;93.57;98802.97;5041006;28;20549;-67
2021/12/12 03:44:13;;;;;;;36.30;22.53;;;3.10;92.10;;;1.66;93.69;98809.97;5044286;28;20462;-67
2021/12/12 03:46:41;;;;;;;35.50;21.30;;;3.20;92.00;;;1.67;93.44;98818.81;5045131;28;20559;-67
2021/12/12 03:49:10;;;;;;;31.60;21.50;;;3.20;91.50;;;1.89;93.06;98820.34;5047802;28;20455;-68
2021/12/12 03:51:39;;;;;;;33.37;22.53;;;3.20;91.80;;;1.72;92.79;98818.38;5045133;28;20467;-68
2021/12/12 03:54:09;;;;;;;32.20;22.27;;;3.20;90.90;;;1.80;93.04;98821.22;5046053;28;20561;-67
2021/12/12 03:56:37;;;;;;;39.37;24.37;;;3.30;91.30;;;1.75;93.33;98828.78;5046430;28;20477;-68
2021/12/12 03:59:04;;;;;;;34.67;22.47;;;3.20;91.40;;;1.69;93.55;98835.50;5051269;28;20549;-68
2021/12/12 04:01:35;;;;;;;34.00;22.47;;;3.20;91.40;;;1.84;93.38;98835.94;5047181;28;20468;-68
2021/12/12 04:04:08;;;;;;;32.70;22.00;;;3.20;91.90;;;1.73;93.11;98836.06;5039428;28;20969;-69
2021/12/12 04:06:35;;;;;;;30.77;21.57;;;3.20;91.00;;;1.67;93.16;98837.47;5046221;28;20509;-68
2021/12/12 04:09:07;;;;;;;27.20;19.10;;;3.20;91.00;;;1.67;93.12;98843.63;5061368;28;20451;-68
2021/12/12 04:11:39;;;;;;;32.03;20.80;;;3.10;91.40;;;1.65;92.69;98832.28;5067746;28;20489;-67
2021/12/12 04:14:07;;;;;;;31.67;19.20;;;3.20;90.90;;;1.61;92.99;98838.88;5062409;28;20501;-68
2021/12/12 04:16:37;;;;;;;31.70;19.63;;;3.10;90.90;;;1.65;93.13;98845.59;5043047;28;20454;-68
2021/12/12 04:19:06;;;;;;;28.73;20.40;;;3.10;91.50;;;1.55;91.93;98844.72;5051290;28;20442;-67
2021/12/12 04:21:35;;;;;;;29.70;18.17;;;3.00;90.20;;;1.54;91.73;98848.38;5040272;28;20633;-67
2021/12/12 04:24:04;;;;;;;22.20;17.23;;;3.10;90.00;;;1.59;91.16;98855.97;5048936;28;20449;-67
2021/12/12 04:26:36;;;;;;;21.40;16.40;;;3.10;88.80;;;1.69;90.27;98860.31;5044959;28;20473;-67
2021/12/12 04:29:08;;;;;;;27.50;16.73;;;3.10;87.70;;;1.68;90.25;98855.97;5048697;28;20450;-68
2021/12/12 04:31:37;;;;;;;26.40;17.23;;;3.20;87.60;;;1.70;90.18;98853.19;5045815;28;20544;-68
2021/12/12 04:34:06;;;;;;;22.00;15.40;;;3.10;87.50;;;1.70;89.39;98870.00;5055772;28;20472;-67
2021/12/12 04:36:36;;;;;;;24.73;15.90;;;3.10;86.30;;;1.69;89.29;98862.16;5048474;28;20478;-67
2021/12/12 04:39:10;;;;;;;20.67;14.60;;;3.10;86.50;;;1.60;88.68;98871.81;5045503;28;20461;-67
2021/12/12 04:41:39;;;;;;;20.43;14.30;;;3.10;84.40;;;1.56;89.06;98875.72;5044509;28;22398;-67
2021/12/12 04:44:07;;;;;;;17.40;13.00;;;3.00;84.70;;;1.62;87.84;98872.53;5047303;28;20866;-68
2021/12/12 04:52:26;;;;;;;15.93;10.23;;;3.00;83.00;;;1.42;87.37;98880.44;5046624;28;20469;-67
2021/12/12 04:55:03;;;;;;;12.67;9.60;;;3.00;82.50;;;1.32;86.67;98878.72;5051601;28;21215;-67
2021/12/12 04:57:39;;;;;;;13.60;9.23;;;2.90;81.40;;;1.25;86.40;98875.75;5046606;28;20448;-67
2021/12/12 05:00:10;;;;;;;12.77;8.17;;;2.80;80.70;;;1.24;86.46;98874.06;5060905;28;20561;-68
2021/12/12 05:02:48;;;;;;;12.50;8.33;;;2.70;80.90;;;1.32;85.59;98878.72;5044394;28;20463;-67
2021/12/12 05:05:21;;;;;;;12.87;8.57;;;2.80;80.50;;;1.20;86.52;98888.66;5055737;28;21016;-67
2021/12/12 05:07:54;;;;;;;11.37;7.87;;;2.70;81.20;;;1.16;85.65;98887.22;5062448;28;20469;-67
2021/12/12 05:10:25;;;;;;;16.50;7.77;;;2.70;79.90;;;1.19;85.72;98887.78;5063448;28;20447;-68
2021/12/12 05:13:00;;;;;;;11.13;9.17;;;2.70;80.30;;;1.18;85.85;98901.25;5046278;28;20460;-68
2021/12/12 05:15:33;;;;;;;12.00;8.23;;;2.70;80.20;;;1.08;85.67;98902.03;5046553;28;20532;-68
2021/12/12 05:18:04;;;;;;;9.73;7.53;;;2.60;79.80;;;1.19;86.51;98903.75;5062172;28;20912;-68
2021/12/12 05:20:36;;;;;;;9.70;8.00;;;2.70;80.90;;;1.01;86.67;98884.94;5047772;28;20567;-68
2021/12/12 05:23:07;;;;;;;12.93;8.20;;;2.60;80.70;;;1.03;86.75;98904.25;5043881;28;20454;-69
2021/12/12 05:25:40;;;;;;;11.40;8.07;;;2.60;81.00;;;1.10;86.59;98900.09;5045663;28;20447;-68
2021/12/12 05:28:12;;;;;;;10.17;7.80;;;2.60;81.20;;;1.03;86.25;98898.94;5044784;28;20474;-68
2021/12/12 05:30:39;;;;;;;12.03;7.37;;;2.50;80.80;;;0.91;86.55;98908.84;5056236;28;21014;-68
2021/12/12 05:33:07;;;;;;;9.40;7.33;;;2.40;81.00;;;0.80;86.54;98908.91;5048990;28;20450;-68
2021/12/12 05:35:39;;;;;;;11.23;7.67;;;2.30;80.90;;;0.60;87.73;98913.25;5059258;28;20449;-66
2021/12/12 05:38:08;;;;;;;12.70;8.23;;;2.20;81.30;;;0.42;88.68;98917.31;5042377;28;20485;-68
2021/12/12 05:40:38;;;;;;;11.03;7.37;;;2.00;82.60;;;0.29;89.21;98927.28;5048953;28;21193;-68
2021/12/12 05:43:13;;;;;;;12.20;8.10;;;1.80;83.60;;;0.19;89.54;98923.72;5042356;28;20469;-68
2021/12/12 05:45:41;;;;;;;13.17;7.17;;;1.70;84.50;;;0.13;89.83;98917.09;5042769;28;20552;-68
2021/12/12 05:48:09;;;;;;;7.83;7.03;;;1.60;85.40;;;0.12;89.43;98916.22;5061995;28;20482;-68
2021/12/12 05:50:39;;;;;;;10.10;8.20;;;1.60;84.90;;;-0.08;90.32;98922.34;5054195;28;20488;-68
2021/12/12 05:53:07;;;;;;;11.43;8.53;;;1.50;85.10;;;-0.08;90.23;98914.38;5041889;28;20488;-67
2021/12/12 05:55:38;;;;;;;12.30;8.83;;;1.40;87.20;;;-0.25;91.27;98918.38;5048498;28;20829;-67
2021/12/12 05:58:17;;;;;;;13.33;7.97;;;1.30;87.30;;;-0.18;91.57;98922.25;5043413;28;20533;-67
2021/12/12 06:00:49;;;;;;;11.50;7.33;;;1.30;89.50;;;-0.31;91.46;98930.34;5041042;28;20519;-67
2021/12/12 06:03:20;;;;;;;10.30;7.70;;;1.20;88.60;;;-0.35;91.93;98932.44;5040515;28;20573;-68
2021/12/12 06:05:48;;;;;;;11.00;8.23;;;1.20;89.90;;;-0.39;92.21;98933.63;5050079;28;20456;-67
2021/12/12 06:08:15;;;;;;;12.03;8.43;;;1.20;90.10;;;-0.41;92.43;98940.03;5041959;28;20477;-68
2021/12/12 06:10:45;;;;;;;14.27;9.10;;;1.10;90.60;;;-0.44;92.43;98941.13;5046059;28;20469;-68
2021/12/12 06:13:17;;;;;;;13.60;8.60;;;1.10;90.00;;;-0.50;93.02;98941.63;5042160;28;20457;-66
2021/12/12 06:15:49;;;;;;;10.97;8.13;;;1.10;90.50;;;-0.38;92.48;98945.97;5042677;28;20454;-67
2021/12/12 06:18:16;;;;;;;13.77;7.77;;;1.10;90.60;;;-0.32;92.15;98955.22;5040666;28;20898;-66
2021/12/12 06:20:45;;;;;;;11.50;7.90;;;1.20;90.50;;;-0.39;92.15;98952.22;5053745;28;20446;-67
2021/12/12 06:23:14;;;;;;;13.40;8.50;;;1.20;90.40;;;-0.32;91.62;98968.50;5043344;28;20549;-67
2021/12/12 06:25:42;;;;;;;16.00;8.63;;;1.20;89.30;;;-0.37;92.00;98968.91;5042527;28;20458;-67
2021/12/12 06:28:10;;;;;;;10.93;9.00;;;1.20;89.20;;;-0.46;92.58;98977.56;5044332;28;20476;-67
2021/12/12 06:30:39;;;;;;;13.57;8.23;;;1.10;89.50;;;-0.54;92.65;98972.00;5047926;28;20472;-67
2021/12/12 06:33:06;;;;;;;17.03;8.10;;;1.10;89.90;;;-0.53;92.91;98979.00;5045448;28;20573;-67
2021/12/12 06:35:34;;;;;;;9.93;7.77;;;1.00;90.20;;;-0.50;92.16;98984.09;5051164;28;20463;-68
2021/12/12 06:38:04;;;;;;;13.40;8.13;;;1.00;90.00;;;-0.59;92.63;98986.50;5040626;28;20484;-67
2021/12/12 06:40:31;;;;;;;9.80;7.93;;;1.00;90.00;;;-0.49;92.45;98983.13;5061884;28;20537;-66
2021/12/12 06:43:01;;;;;;;10.93;7.87;;;1.10;89.70;;;-0.43;92.05;98987.94;5039394;28;20458;-68
2021/12/12 06:45:30;;;;;;;12.50;8.60;;;1.10;89.70;;;-0.35;91.53;98987.34;5044474;28;20466;-68
2021/12/12 06:47:59;;;;;;;12.10;9.53;;;1.10;89.80;;;-0.35;91.71;98976.72;5045903;28;20836;-67
2021/12/12 06:50:28;;;;;;;12.43;8.23;;;1.20;89.10;;;-0.44;91.62;98972.97;5051283;28;20553;-67
2021/12/12 06:52:57;;;;;;;10.93;8.50;;;1.20;89.20;;;-0.18;91.21;98988.66;5037059;28;20541;-67
2021/12/12 06:55:24;;;;;;;13.77;8.70;;;1.30;87.80;;;-0.17;91.10;98993.00;5042985;28;20955;-68
2021/12/12 06:57:52;;;;;;;15.77;10.60;;;1.40;87.90;;;-0.10;90.64;99002.16;5042985;28;20539;-68
2021/12/12 07:00:23;;;;;;;12.60;8.90;;;1.40;87.30;;;-0.07;90.81;99001.09;5041523;28;20553;-67
2021/12/12 07:02:50;;;;;;;10.83;8.00;;;1.50;86.90;;;0.09;89.34;98992.72;5042592;28;20568;-67
2021/12/12 07:05:24;;;;;;;8.43;6.70;;;1.60;85.40;;;0.26;88.66;99005.50;5037669;28;20533;-68
2021/12/12 07:07:53;;;;;;;11.10;6.87;;;1.70;83.90;;;0.26;88.41;99000.19;5038958;28;20470;-69
2021/12/12 07:10:24;;;;;;;8.87;6.80;;;1.80;83.10;;;0.53;89.39;98990.91;5044011;28;20481;-69
2021/12/12 07:12:55;;;;;;;12.07;6.70;;;2.00;86.50;;;0.27;88.32;98995.69;5036324;28;20549;-69
2021/12/12 07:15:25;;;;;;;8.97;6.90;;;1.80;83.70;;;0.31;87.79;99004.25;5060828;28;20552;-69
2021/12/12 07:17:54;;;;;;;10.00;6.53;;;1.80;82.90;;;0.16;88.34;99007.19;5042093;28;20568;-70
2021/12/12 07:20:23;;;;;;;9.93;7.63;;;1.70;82.90;;;-0.06;88.26;98990.34;5066152;28;20467;-69
2021/12/12 07:22:51;;;;;;;9.50;6.67;;;1.60;82.60;;;-0.10;88.65;99011.97;5047949;28;20502;-70
2021/12/12 07:25:20;;;;;;;8.67;6.80;;;1.50;82.50;;;-0.13;88.88;99015.69;5048296;28;20566;-69
2021/12/12 07:27:50;;;;;;;10.63;7.20;;;1.40;82.90;;;-0.10;88.40;99012.78;5039295;28;20562;-68
2021/12/12 07:30:17;;;;;;;8.33;5.83;;;1.40;83.70;;;-0.09;88.09;99003.84;5040700;28;20498;-68
2021/12/12 07:32:45;;;;;;;9.33;6.70;;;1.50;83.30;;;-0.19;88.01;98998.44;5045158;28;20468;-69
2021/12/12 07:35:15;;;;;;;11.00;7.70;;;1.40;82.70;;;-0.39;88.67;99002.66;5043520;28;20463;-72
2021/12/12 07:37:44;;;;;;;11.77;7.63;;;1.30;83.10;;;-0.18;88.39;99018.72;5043207;28;20548;-69
2021/12/12 07:40:13;;;;;;;9.07;6.80;;;1.30;83.40;;;-0.15;88.29;99009.66;5049853;28;20523;-68
2021/12/12 07:42:43;;;;;;;9.20;6.97;;;1.40;82.70;;;-0.03;88.20;99003.38;5048365;28;20552;-69
2021/12/12 07:45:11;;;;;;;12.47;7.97;;;1.40;83.20;;;-0.04;87.95;98996.38;5048323;28;20565;-69
2021/12/12 07:47:38;;;;;;;10.00;7.63;;;1.40;82.90;;;0.26;87.73;98996.66;5041557;28;20483;-69
2021/12/12 07:50:10;;;;;;;10.20;6.93;;;1.60;83.60;;;0.21;86.77;98997.03;5048343;28;20563;-69
2021/12/12 07:52:37;;;;;;;10.60;7.20;;;1.70;81.90;;;0.12;86.92;99005.75;5047572;28;20553;-69
2021/12/12 07:55:07;;;;;;;9.03;7.03;;;1.70;81.10;;;0.05;87.80;99009.88;5048168;28;20898;-68
2021/12/12 07:57:34;;;;;;;9.30;6.73;;;1.60;81.60;;;0.19;87.07;99004.28;5044224;28;20458;-69
2021/12/12 08:00:06;;;;;;;10.10;7.07;;;1.70;81.60;;;-0.09;86.78;98971.97;5058632;28;20462;-69
2021/12/12 08:02:33;;;;;;;8.60;6.80;;;1.70;81.00;;;0.47;86.54;99003.88;5058224;28;20533;-69
2021/12/12 08:05:01;;;;;;;9.20;6.97;;;1.80;81.10;;;0.22;85.97;99000.53;5044044;28;20477;-69
2021/12/12 08:07:29;;;;;;;7.17;6.33;;;1.80;79.70;;;0.11;86.38;99004.91;5046152;28;20476;-71
2021/12/12 08:09:56;;;;;;;10.13;6.90;;;1.80;79.90;;;0.20;86.89;99002.47;5041982;28;20857;-70
2021/12/12 08:12:29;;;;;;;8.67;6.40;;;1.70;80.60;;;0.42;85.11;99012.22;5041819;28;20790;-70
2021/12/12 08:14:57;;;;;;;9.90;7.03;;;1.90;79.70;;;0.31;84.92;99009.59;5042746;28;20454;-71
2021/12/12 08:17:25;;;;;;;7.80;6.23;;;1.90;78.80;;;0.55;84.48;99012.91;5041492;28;20449;-72
2021/12/12 08:19:53;;;;;;;7.73;6.80;;;2.00;79.00;;;0.62;85.62;99012.38;5049357;28;20469;-71
2021/12/12 08:22:20;;;;;;;9.30;7.13;;;2.10;79.50;;;0.56;84.48;98995.97;5043493;28;20533;-70
2021/12/12 08:24:48;;;;;;;12.10;6.47;;;2.20;78.50;;;1.09;83.00;99012.03;5039480;28;20574;-70
2021/12/12 08:27:17;;;;;;;11.87;6.30;;;2.50;78.20;;;1.06;82.73;99010.47;5042635;28;20469;-70
2021/12/12 08:29:46;;;;;;;10.57;6.47;;;2.60;77.40;;;1.32;81.09;99006.53;5046568;28;20465;-75
2021/12/12 08:32:15;;;;;;;7.47;5.87;;;2.80;76.50;;;1.45;79.68;99009.00;5034523;28;20829;-76
2021/12/12 08:34:42;;;;;;;7.17;5.00;;;2.90;74.90;;;1.64;77.80;98987.78;5037166;28;20462;-74
2021/12/12 08:37:10;;;;;;;6.37;5.27;;;3.20;73.50;;;1.69;78.86;99017.53;5059051;28;20465;-74
2021/12/12 08:39:39;;;;;;;5.80;5.20;;;3.20;73.60;;;1.74;77.84;99016.28;5052244;28;20549;-76
2021/12/12 08:42:08;;;;;;;9.33;5.70;;;3.30;72.50;;;2.04;77.28;99017.22;5072052;28;20466;-75
2021/12/12 08:44:36;;;;;;;9.97;7.07;;;3.40;72.50;;;1.83;78.26;99016.34;5054783;28;20467;-75
2021/12/12 08:47:15;;;;;;;9.90;6.63;;;3.40;72.70;;;1.67;78.79;99018.66;5057493;28;20450;-74
2021/12/12 08:49:44;;;;;;;9.17;6.20;;;3.30;72.60;;;1.60;79.12;99013.00;5049379;28;20458;-75
2021/12/12 08:52:17;;;;;;;10.40;6.90;;;3.30;72.70;;;1.74;78.76;99024.25;5054223;28;20957;-74
2021/12/12 08:54:48;;;;;;;9.40;6.17;;;3.30;72.80;;;1.82;78.84;99027.13;5049640;28;20466;-77
2021/12/12 08:57:33;;;;;;;16.53;6.73;;;3.40;72.80;;;1.78;79.01;99031.84;5069047;28;21204;-75
2021/12/12 09:00:06;;;;;;;6.80;5.63;;;3.30;72.80;;;1.95;78.55;99032.19;5069322;28;20447;-76
2021/12/12 09:02:35;;;;;;;7.30;6.60;;;3.50;72.70;;;2.00;78.19;99024.66;5058628;28;20797;-75
2021/12/12 09:05:13;;;;;;;10.07;6.60;;;3.50;72.50;;;2.11;78.15;99026.38;5049609;28;20819;-75
2021/12/12 09:07:45;;;;;;;9.00;6.47;;;3.60;72.50;;;2.09;77.85;99023.81;5071886;28;20464;-75
2021/12/12 09:10:18;;;;;;;10.43;5.83;;;3.70;72.10;;;2.14;77.98;99020.75;5058674;28;20465;-76
2021/12/12 09:12:51;;;;;;;6.67;5.97;;;3.70;72.20;;;2.07;77.18;99027.63;5047098;28;20583;-76
2021/12/12 09:15:27;;;;;;;6.93;6.27;;;3.60;71.40;;;2.26;77.13;99025.00;5051749;28;20881;-75
2021/12/12 09:18:02;;;;;;;9.33;6.17;;;3.70;71.70;;;2.52;76.27;99024.47;5053603;28;20437;-75
2021/12/12 09:20:34;;;;;;;7.87;5.97;;;3.90;71.70;;;2.52;75.37;99024.47;5050059;28;20552;-75
2021/12/12 09:23:07;;;;;;;5.90;5.30;;;4.00;71.10;;;2.70;75.15;99026.47;5051519;28;20659;-75
2021/12/12 09:25:41;;;;;;;9.23;6.70;;;4.10;70.80;;;2.63;75.81;99031.50;5048392;28;20462;-75
2021/12/12 09:28:18;;;;;;;9.03;6.10;;;4.20;70.40;;;2.68;75.41;98996.41;5051244;28;20465;-75
2021/12/12 09:30:45;;;;;;;9.07;6.97;;;4.20;70.20;;;2.72;74.26;99008.47;5050395;28;20549;-74
2021/12/12 09:33:19;;;;;;;9.40;6.53;;;4.30;69.50;;;2.62;76.17;99015.63;5062535;28;20458;-75
2021/12/12 09:35:53;;;;;;;8.73;6.97;;;4.20;70.20;;;2.52;75.87;98992.47;5045543;28;20536;-75
2021/12/12 09:38:25;;;;;;;7.13;6.37;;;4.10;70.10;;;2.62;76.04;99010.28;5044975;28;20467;-75
2021/12/12 09:41:29;;;;;;;9.00;5.63;;;4.20;70.30;;;2.65;75.22;99012.66;5053812;28;20488;-75
2021/12/12 09:44:29;;;;;;;8.57;6.27;;;4.20;69.80;;;2.76;75.43;99003.72;5052115;28;20461;-75
2021/12/12 09:47:27;;;;;;;9.70;7.20;;;4.20;70.00;;;2.85;75.59;98992.16;5051253;28;20549;-75
2021/12/12 09:53:27;;;;;;;8.23;6.70;;;4.30;69.60;;;2.83;75.36;98997.66;5052695;28;20490;-75
2021/12/12 09:56:03;;;;;;;9.07;6.30;;;4.30;70.20;;;2.75;74.90;98981.50;5047159;28;20497;-73
2021/12/12 09:58:44;;;;;;;7.40;6.33;;;4.40;69.40;;;2.89;74.22;98987.38;5050319;28;20462;-76
2021/12/12 10:01:19;;;;;;;6.97;6.27;;;4.40;68.80;;;2.82;74.93;98987.13;5048069;28;20469;-76
2021/12/12 10:04:08;;;;;;;10.30;7.07;;;4.30;69.00;;;2.88;74.92;98986.56;5053336;28;20549;-76
2021/12/12 10:06:47;;;;;;;8.07;6.90;;;4.40;69.30;;;2.96;74.67;98972.50;5047507;28;20453;-76
2021/12/12 10:09:18;;;;;;;10.70;7.60;;;4.50;69.00;;;3.06;74.81;98967.97;5059480;28;20558;-75
2021/12/12 10:11:56;;;;;;;11.33;7.63;;;4.60;69.00;;;3.32;74.35;98962.00;5068390;28;20541;-75
2021/12/12 10:14:34;;;;;;;8.63;6.93;;;4.70;68.90;;;3.63;72.70;98956.41;5054798;28;20541;-75
2021/12/12 10:17:10;;;;;;;8.43;6.87;;;5.00;68.60;;;3.44;72.60;98930.59;5049734;28;20461;-75
2021/12/12 10:19:46;;;;;;;9.53;7.10;;;5.00;68.30;;;3.43;72.60;98965.50;5047722;28;20532;-76
2021/12/12 10:22:29;;;;;;;11.40;7.53;;;5.00;67.70;;;3.49;73.15;98954.22;5044372;28;20462;-74
2021/12/12 10:25:05;;;;;;;13.30;8.00;;;5.00;67.90;;;3.57;72.48;98970.38;5042819;28;20489;-76
2021/12/12 10:27:41;;;;;;;5.20;4.70;;;5.00;67.40;;;3.78;71.46;98955.91;5047687;28;20544;-75
2021/12/12 10:30:14;;;;;;;9.87;5.33;;;5.10;66.40;;;3.99;70.63;98958.31;5042405;28;20461;-77
2021/12/12 10:32:52;;;;;;;7.90;4.40;;;5.30;66.30;;;3.52;71.13;98962.78;5046072;28;20437;-76
2021/12/12 10:35:26;;;;;;;8.60;4.53;;;5.10;65.00;;;3.38;71.51;98961.41;5043159;28;20461;-76
2021/12/12 10:38:00;;;;;;;9.23;4.90;;;5.00;65.30;;;3.33;72.18;98958.34;5047034;28;20477;-75
2021/12/12 10:40:36;;;;;;;8.93;4.90;;;4.80;66.00;;;3.81;71.21;98951.13;5048251;28;20469;-76
2021/12/12 10:43:12;;;;;;;9.30;6.40;;;5.10;66.40;;;4.01;72.83;98958.16;5044723;28;20829;-76
2021/12/12 10:45:47;;;;;;;12.30;5.17;;;5.30;67.50;;;4.14;72.04;98964.00;5050251;28;20450;-75
2021/12/12 10:48:20;;;;;;;6.50;5.07;;;5.50;67.10;;;3.74;72.11;98950.00;5062070;28;20516;-74
2021/12/12 10:50:56;;;;;;;5.47;4.17;;;5.30;65.60;;;3.59;70.95;98947.00;5047260;28;20541;-75
2021/12/12 10:53:33;;;;;;;5.70;3.70;;;5.20;65.00;;;3.19;72.24;98924.09;5046115;28;21036;-76
2021/12/12 10:56:06;;;;;;;6.80;4.80;;;4.90;65.30;;;3.37;72.70;98938.34;5052387;28;20454;-73
2021/12/12 10:58:39;;;;;;;6.90;4.77;;;4.90;65.90;;;3.54;71.72;98935.88;5039399;28;20465;-75
2021/12/12 11:01:12;;;;;;;5.77;4.90;;;5.00;66.00;;;3.48;72.17;98909.78;5074109;28;20486;-83